Time;durP1;ratioP1;P1;durP2;ratioP2;P2;SDS_P1;SDS_P2;PMS_P1;PMS_P2;Temp;Humidity;BMP_temperature;BMP_pressure;BME280_temperature;BME280_humidity;BME280_pressure;Samples;Min_cycle;Max_cycle;Signal;HPM_P1;HPM_P2
2021/06/29 00:00:52;;;;;;;;;;;;;;;22.14;64.61;101248.72;2184906;39;115558;-54
2021/06/29 00:02:24;;;;;;;;;;;;;;;22.15;64.68;101241.94;2192383;39;116052;-54
2021/06/29 00:03:55;;;;;;;;;;;;;;;22.17;64.73;101239.63;2193795;39;115441;-54
2021/06/29 00:05:28;;;;;;;;;;;;;;;22.14;64.58;101245.91;2189327;39;115474;-54
2021/06/29 00:07:00;;;;;;;;;;;;;;;22.16;64.65;101240.81;2189966;39;115910;-54
2021/06/29 00:08:32;;;;;;;;;;;;;;;22.16;64.82;101238.84;2186980;39;115438;-54
2021/06/29 00:10:24;;;;;;;;;;;;;;;22.14;64.84;101234.66;2193298;39;116397;-54
2021/06/29 00:11:56;;;;;;;;;;;;;;;22.14;64.97;101237.47;2187440;39;115663;-54
2021/06/29 00:13:28;;;;;;;;;;;;;;;22.14;65.03;101235.47;2186689;39;116081;-54
2021/06/29 00:15:00;;;;;;;;;;;;;;;22.15;64.83;101231.53;2194834;39;115622;-54
2021/06/29 00:16:31;;;;;;;;;;;;;;;22.17;64.93;101234.00;2196723;39;114572;-54
2021/06/29 00:18:04;;;;;;;;;;;;;;;22.16;64.68;101232.38;2196778;39;115336;-54
2021/06/29 00:19:35;;;;;;;;;;;;;;;22.14;64.99;101229.00;2190109;39;116519;-54
2021/06/29 00:21:07;;;;;;;;;;;;;;;22.18;64.82;101227.25;2202952;39;116364;-54
2021/06/29 00:22:39;;;;;;;;;;;;;;;22.16;64.83;101232.38;2191679;39;114038;-54
2021/06/29 00:24:10;;;;;;;;;;;;;;;22.17;64.71;101226.41;2196047;39;114103;-54
2021/06/29 00:25:42;;;;;;;;;;;;;;;22.16;64.95;101227.56;2193108;39;113954;-54
2021/06/29 00:27:14;;;;;;;;;;;;;;;22.16;65.04;101229.56;2196364;39;114504;-54
2021/06/29 00:28:46;;;;;;;;;;;;;;;22.16;64.98;101233.22;2198052;39;113975;-54
2021/06/29 00:30:18;;;;;;;;;;;;;;;22.17;64.94;101236.81;2191868;39;114775;-54
2021/06/29 00:31:49;;;;;;;;;;;;;;;22.16;64.83;101232.38;2189166;39;113875;-54
2021/06/29 00:33:21;;;;;;;;;;;;;;;22.17;64.62;101231.19;2195891;39;114017;-54
2021/06/29 00:34:53;;;;;;;;;;;;;;;22.18;64.66;101224.44;2198231;39;113737;-54
2021/06/29 00:36:25;;;;;;;;;;;;;;;22.18;65.12;101227.25;2199313;39;113865;-54
2021/06/29 00:37:56;;;;;;;;;;;;;;;22.19;65.10;101228.91;2185333;39;113898;-54
2021/06/29 00:39:28;;;;;;;;;;;;;;;22.17;64.95;101229.22;2193219;39;114000;-54
2021/06/29 00:41:00;;;;;;;;;;;;;;;22.18;64.87;101218.78;2197494;39;113801;-54
2021/06/29 00:42:32;;;;;;;;;;;;;;;22.18;64.73;101218.78;2200526;39;113614;-54
2021/06/29 00:44:03;;;;;;;;;;;;;;;22.20;64.94;101216.53;2191223;39;114816;-54
2021/06/29 00:45:35;;;;;;;;;;;;;;;22.20;64.74;101208.06;2194418;39;115149;-54
2021/06/29 00:47:09;;;;;;;;;;;;;;;22.21;64.84;101206.94;2197273;39;115671;-54
2021/06/29 00:48:41;;;;;;;;;;;;;;;22.23;64.76;101209.41;2191404;39;114719;-54
2021/06/29 00:50:14;;;;;;;;;;;;;;;22.22;64.88;101202.09;2188384;39;114260;-54
2021/06/29 00:51:46;;;;;;;;;;;;;;;22.24;64.68;101205.47;2189939;39;114964;-54
2021/06/29 00:53:18;;;;;;;;;;;;;;;22.23;64.68;101209.41;2191204;39;115127;-54
2021/06/29 00:54:50;;;;;;;;;;;;;;;22.21;64.71;101212.56;2192120;39;114835;-54
2021/06/29 00:56:22;;;;;;;;;;;;;;;22.19;64.69;101206.41;2194621;39;115504;-54
2021/06/29 00:57:53;;;;;;;;;;;;;;;22.20;64.51;101202.44;2201156;39;114406;-54
2021/06/29 00:59:25;;;;;;;;;;;;;;;22.20;64.93;101199.63;2195940;39;114168;-54
2021/06/29 01:00:57;;;;;;;;;;;;;;;22.20;64.55;101205.25;2197526;39;114879;-54
2021/06/29 01:02:28;;;;;;;;;;;;;;;22.20;64.68;101202.44;2198786;39;115338;-54
2021/06/29 01:04:00;;;;;;;;;;;;;;;22.21;64.83;101203.28;2206860;39;114381;-54
2021/06/29 01:05:32;;;;;;;;;;;;;;;22.20;64.67;101193.16;2190455;39;116051;-54
2021/06/29 01:07:05;;;;;;;;;;;;;;;22.21;64.67;101192.03;2195386;39;115559;-54
2021/06/29 01:08:37;;;;;;;;;;;;;;;22.20;64.71;101199.63;2200710;39;115618;-54
2021/06/29 01:10:10;;;;;;;;;;;;;;;22.18;64.66;101194.31;2200705;39;115717;-54
2021/06/29 01:11:42;;;;;;;;;;;;;;;22.21;64.63;101194.84;2198866;39;115267;-54
2021/06/29 01:13:26;;;;;;;;;;;;;;;22.23;64.71;101193.38;2184065;39;114634;-54
2021/06/29 01:14:58;;;;;;;;;;;;;;;22.24;64.52;101191.38;2195198;39;115558;-54
2021/06/29 01:16:30;;;;;;;;;;;;;;;22.23;64.59;101187.72;2190126;39;114742;-54
2021/06/29 01:18:02;;;;;;;;;;;;;;;22.22;64.63;101182.41;2185674;39;116281;-54
2021/06/29 01:19:45;;;;;;;;;;;;;;;22.24;64.73;101182.94;2187407;39;115469;-54
2021/06/29 01:21:18;;;;;;;;;;;;;;;22.27;64.96;101177.50;2192003;39;115655;-54
2021/06/29 01:22:53;;;;;;;;;;;;;;;22.28;64.83;101184.81;2195063;39;115733;-54
2021/06/29 01:24:29;;;;;;;;;;;;;;;22.27;64.39;101173.84;2185682;39;115550;-54
2021/06/29 01:26:03;;;;;;;;;;;;;;;22.25;64.52;101184.63;2197653;39;114284;-54
2021/06/29 01:29:17;;;;;;;;;;;;;;;22.26;64.53;101180.66;2184282;39;114317;-54
2021/06/29 01:32:29;;;;;;;;;;;;;;;22.23;64.54;101190.53;2196142;39;113679;-55
2021/06/29 01:34:01;;;;;;;;;;;;;;;22.23;64.65;101187.72;2196076;39;113826;-55
2021/06/29 01:35:33;;;;;;;;;;;;;;;22.24;64.68;101185.75;2195994;39;114092;-54
2021/06/29 01:37:05;;;;;;;;;;;;;;;22.24;64.76;101188.56;2197717;39;114049;-54
2021/06/29 01:38:37;;;;;;;;;;;;;;;22.21;64.63;101177.94;2181487;39;113777;-54
2021/06/29 01:41:43;;;;;;;;;;;;;;;22.24;64.81;101188.56;2196095;39;114945;-55
2021/06/29 01:43:17;;;;;;;;;;;;;;;22.25;64.88;101191.06;2193297;39;113742;-55
2021/06/29 01:44:49;;;;;;;;;;;;;;;22.25;64.82;101182.63;2193251;39;114227;-55
2021/06/29 01:46:23;;;;;;;;;;;;;;;22.25;64.82;101188.25;2197715;39;113748;-54
2021/06/29 01:47:57;;;;;;;;;;;;;;;22.25;64.82;101193.91;2189439;39;113700;-54
2021/06/29 01:49:29;;;;;;;;;;;;;;;22.25;64.85;101182.63;2194828;39;113751;-54
2021/06/29 01:51:00;;;;;;;;;;;;;;;22.27;64.80;101185.94;2190047;39;114838;-54
2021/06/29 01:52:32;;;;;;;;;;;;;;;22.29;65.01;101185.66;2194814;39;114809;-54
2021/06/29 01:54:04;;;;;;;;;;;;;;;22.28;64.98;101193.25;2194581;39;115984;-54
2021/06/29 01:55:38;;;;;;;;;;;;;;;22.26;64.79;101189.91;2194185;39;115793;-54
2021/06/29 01:57:15;;;;;;;;;;;;;;;22.26;65.04;101187.09;2193987;39;114602;-54
2021/06/29 01:58:51;;;;;;;;;;;;;;;22.27;64.87;101191.59;2186909;39;115233;-55
2021/06/29 02:00:23;;;;;;;;;;;;;;;22.27;64.63;101191.59;2184737;39;114567;-54
2021/06/29 02:01:55;;;;;;;;;;;;;;;22.29;64.71;101188.47;2189159;39;114896;-54
2021/06/29 02:03:27;;;;;;;;;;;;;;;22.28;64.72;101187.63;2192153;39;114577;-54
2021/06/29 02:04:59;;;;;;;;;;;;;;;22.26;64.84;101194.72;2194726;39;114906;-54
2021/06/29 02:06:31;;;;;;;;;;;;;;;22.26;64.70;101191.91;2188790;39;115034;-54
2021/06/29 02:08:02;;;;;;;;;;;;;;;22.25;64.80;101198.69;2184622;39;115088;-55
2021/06/29 02:09:34;;;;;;;;;;;;;;;22.28;64.91;101196.06;2186022;39;115001;-54
2021/06/29 02:11:06;;;;;;;;;;;;;;;22.27;64.80;101200.03;2198295;39;113904;-54
2021/06/29 02:12:37;;;;;;;;;;;;;;;22.28;64.82;101192.41;2198925;39;116112;-54
2021/06/29 02:14:09;;;;;;;;;;;;;;;22.31;64.66;101197.41;2197659;39;115529;-55
2021/06/29 02:15:41;;;;;;;;;;;;;;;22.30;64.28;101204.22;2197798;39;115900;-54
2021/06/29 02:17:13;;;;;;;;;;;;;;;22.25;64.18;101205.16;2199743;39;114713;-55
2021/06/29 02:18:44;;;;;;;;;;;;;;;22.23;62.76;101201.81;2197151;39;115491;-54
2021/06/29 02:20:17;;;;;;;;;;;;;;;22.21;62.86;101201.31;2198405;39;115726;-54
2021/06/29 02:21:49;;;;;;;;;;;;;;;22.16;62.20;101205.06;2187470;39;114873;-54
2021/06/29 02:23:20;;;;;;;;;;;;;;;22.14;62.05;101201.72;2194368;39;116412;-55
2021/06/29 02:24:52;;;;;;;;;;;;;;;22.15;61.84;101197.75;2197944;39;115611;-55
2021/06/29 02:26:24;;;;;;;;;;;;;;;22.12;61.95;101195.53;2203227;39;114888;-55
2021/06/29 02:27:55;;;;;;;;;;;;;;;22.10;61.71;101206.31;2198282;39;115687;-55
2021/06/29 02:29:27;;;;;;;;;;;;;;;22.07;61.26;101206.94;2196822;39;115814;-54
2021/06/29 02:30:59;;;;;;;;;;;;;;;22.07;61.40;101208.91;2199789;39;115494;-55
2021/06/29 02:32:30;;;;;;;;;;;;;;;22.05;61.63;101202.75;2192449;39;115502;-55
2021/06/29 02:34:02;;;;;;;;;;;;;;;22.00;61.25;101209.31;2188697;39;114855;-55
2021/06/29 02:35:34;;;;;;;;;;;;;;;22.08;62.12;101202.94;2193268;39;113959;-54
2021/06/29 02:37:06;;;;;;;;;;;;;;;22.11;62.39;101201.50;2199262;39;113890;-54
2021/06/29 02:38:38;;;;;;;;;;;;;;;22.13;62.42;101199.19;2200441;39;113629;-54
2021/06/29 02:40:11;;;;;;;;;;;;;;;22.14;62.45;101203.69;2198449;39;114060;-54
2021/06/29 02:41:42;;;;;;;;;;;;;;;22.15;62.33;101194.94;2191490;39;113886;-54
2021/06/29 02:43:15;;;;;;;;;;;;;;;22.15;62.70;101199.72;2184563;39;113878;-54
2021/06/29 02:44:47;;;;;;;;;;;;;;;22.15;62.65;101200.56;2196517;39;114150;-54
2021/06/29 02:46:19;;;;;;;;;;;;;;;22.15;62.44;101196.91;2191008;39;114424;-54
2021/06/29 02:47:51;;;;;;;;;;;;;;;22.15;62.46;101196.91;2188222;39;113693;-54
2021/06/29 02:49:23;;;;;;;;;;;;;;;22.17;62.71;101191.78;2190011;39;113852;-54
2021/06/29 02:50:55;;;;;;;;;;;;;;;22.16;62.74;101205.06;2196892;39;113826;-53
2021/06/29 02:52:27;;;;;;;;;;;;;;;22.16;62.75;101191.00;2198327;39;114108;-55
2021/06/29 02:53:59;;;;;;;;;;;;;;;22.14;62.83;101193.28;2194989;39;114550;-54
2021/06/29 02:55:31;;;;;;;;;;;;;;;22.15;62.90;101196.91;2198516;39;113996;-54
2021/06/29 02:57:03;;;;;;;;;;;;;;;22.15;62.90;101203.38;2192162;39;115531;-54
2021/06/29 02:58:35;;;;;;;;;;;;;;;22.15;62.88;101202.53;2200878;39;114003;-54
2021/06/29 03:00:08;;;;;;;;;;;;;;;22.16;62.81;101207.88;2192238;39;115448;-54
2021/06/29 03:01:40;;;;;;;;;;;;;;;22.14;62.95;101189.63;2190245;39;115374;-54
2021/06/29 03:03:12;;;;;;;;;;;;;;;22.16;63.07;101192.97;2189732;39;115195;-54
2021/06/29 03:04:44;;;;;;;;;;;;;;;22.13;63.13;101197.22;2191332;39;114326;-54
2021/06/29 03:06:16;;;;;;;;;;;;;;;22.14;63.01;101187.63;2192906;39;114895;-54
2021/06/29 03:07:47;;;;;;;;;;;;;;;22.14;63.01;101184.00;2196723;39;114809;-54
2021/06/29 03:09:19;;;;;;;;;;;;;;;22.14;63.22;101175.53;2192120;39;115297;-54
2021/06/29 03:10:51;;;;;;;;;;;;;;;22.14;63.18;101172.72;2202414;39;113712;-54
2021/06/29 03:12:22;;;;;;;;;;;;;;;22.17;63.29;101177.72;2197319;39;114783;-54
2021/06/29 03:13:54;;;;;;;;;;;;;;;22.16;63.19;101182.53;2196555;39;115166;-54
2021/06/29 03:15:27;;;;;;;;;;;;;;;22.15;63.23;101182.84;2203162;39;114875;-54
2021/06/29 03:16:58;;;;;;;;;;;;;;;22.17;63.19;101186.16;2192026;39;116076;-54
2021/06/29 03:18:30;;;;;;;;;;;;;;;22.16;63.17;101185.34;2196613;39;115803;-55
2021/06/29 03:20:03;;;;;;;;;;;;;;;22.16;63.04;101184.53;2197799;39;115770;-54
2021/06/29 03:21:35;;;;;;;;;;;;;;;22.15;63.19;101192.13;2192731;39;115722;-54
2021/06/29 03:23:06;;;;;;;;;;;;;;;22.17;63.28;101187.00;2189695;39;115531;-54
2021/06/29 03:24:38;;;;;;;;;;;;;;;22.16;63.18;101185.34;2187770;39;114876;-55
2021/06/29 03:26:10;;;;;;;;;;;;;;;22.16;63.21;101191.00;2190077;39;115914;-54
2021/06/29 03:27:41;;;;;;;;;;;;;;;22.15;63.16;101186.50;2185965;39;115713;-54
2021/06/29 03:29:13;;;;;;;;;;;;;;;22.17;62.80;101183.34;2192911;39;115519;-54
2021/06/29 03:30:45;;;;;;;;;;;;;;;22.18;63.04;101182.22;2192887;39;115141;-54
2021/06/29 03:32:16;;;;;;;;;;;;;;;22.17;63.11;101172.94;2196193;39;115572;-54
2021/06/29 03:33:48;;;;;;;;;;;;;;;22.17;63.18;101178.56;2198315;39;115712;-54
2021/06/29 03:35:20;;;;;;;;;;;;;;;22.18;63.08;101173.75;2199068;39;116753;-54
2021/06/29 03:36:52;;;;;;;;;;;;;;;22.17;62.96;101180.53;2197966;39;115113;-54
2021/06/29 03:38:24;;;;;;;;;;;;;;;22.15;62.85;101186.50;2200738;39;114895;-54
2021/06/29 03:39:56;;;;;;;;;;;;;;;22.16;63.08;101176.91;2185917;39;113999;-55
2021/06/29 03:41:27;;;;;;;;;;;;;;;22.17;62.97;101189.81;2194828;39;114094;-54
2021/06/29 03:42:59;;;;;;;;;;;;;;;22.17;62.88;101186.16;2191564;39;113864;-54
2021/06/29 03:44:31;;;;;;;;;;;;;;;22.16;62.72;101188.16;2189848;39;114062;-54
2021/06/29 03:46:03;;;;;;;;;;;;;;;22.17;63.01;101187.00;2190315;39;114216;-54
2021/06/29 03:47:35;;;;;;;;;;;;;;;22.18;62.94;101188.66;2198109;39;113842;-54
2021/06/29 03:49:07;;;;;;;;;;;;;;;22.20;62.80;101187.53;2197553;39;113960;-54
2021/06/29 03:50:38;;;;;;;;;;;;;;;22.19;62.85;101189.50;2194734;39;113824;-54
2021/06/29 03:52:10;;;;;;;;;;;;;;;22.16;62.72;101173.25;2199484;39;113754;-54
2021/06/29 03:53:42;;;;;;;;;;;;;;;22.17;62.75;101178.56;2191617;39;113771;-54
2021/06/29 03:55:13;;;;;;;;;;;;;;;22.20;62.93;101177.13;2190057;39;113853;-54
2021/06/29 03:56:45;;;;;;;;;;;;;;;22.17;62.65;101180.53;2190068;39;114169;-54
2021/06/29 03:58:17;;;;;;;;;;;;;;;22.18;62.83;101174.59;2184635;39;113703;-54
2021/06/29 03:59:49;;;;;;;;;;;;;;;22.17;63.16;101174.91;2187824;39;114153;-55
2021/06/29 04:01:26;;;;;;;;;;;;;;;22.17;63.11;101174.91;2194417;39;113872;-55
2021/06/29 04:02:58;;;;;;;;;;;;;;;22.20;62.91;101179.94;2197840;39;114569;-54
2021/06/29 04:04:30;;;;;;;;;;;;;;;22.20;63.07;101184.72;2198598;39;114247;-55
2021/06/29 04:06:01;;;;;;;;;;;;;;;22.19;62.95;101186.69;2198746;39;115084;-54
2021/06/29 04:07:33;;;;;;;;;;;;;;;22.19;63.04;101178.25;2198804;39;115083;-54
2021/06/29 04:09:07;;;;;;;;;;;;;;;22.18;62.71;101174.59;2183801;39;114878;-55
2021/06/29 04:10:39;;;;;;;;;;;;;;;22.19;62.90;101178.25;2184734;39;114829;-54
2021/06/29 04:12:11;;;;;;;;;;;;;;;22.20;63.04;101181.91;2197201;39;115252;-55
2021/06/29 04:13:43;;;;;;;;;;;;;;;22.19;63.09;101181.06;2192102;39;115124;-54
2021/06/29 04:15:14;;;;;;;;;;;;;;;22.19;63.03;101183.88;2191902;39;115150;-54
2021/06/29 04:16:46;;;;;;;;;;;;;;;22.18;63.12;101190.66;2189586;39;114924;-54
2021/06/29 04:18:19;;;;;;;;;;;;;;;22.20;63.44;101196.81;2189228;39;115163;-54
2021/06/29 04:19:50;;;;;;;;;;;;;;;22.19;63.09;101192.31;2196039;39;114623;-55
2021/06/29 04:21:22;;;;;;;;;;;;;;;22.17;63.39;101197.41;2200860;39;114830;-54
2021/06/29 04:22:53;;;;;;;;;;;;;;;22.17;63.44;101195.44;2201458;39;115637;-55
2021/06/29 04:24:25;;;;;;;;;;;;;;;22.17;63.60;101198.25;2196323;39;114506;-54
2021/06/29 04:25:57;;;;;;;;;;;;;;;22.17;63.34;101198.25;2190186;39;115347;-55
2021/06/29 04:27:29;;;;;;;;;;;;;;;22.20;63.60;101195.97;2190741;39;115855;-54
2021/06/29 04:29:00;;;;;;;;;;;;;;;22.18;63.59;101190.66;2189776;39;114504;-54
2021/06/29 04:30:32;;;;;;;;;;;;;;;22.20;63.50;101187.53;2182208;39;115905;-54
2021/06/29 04:32:04;;;;;;;;;;;;;;;22.16;63.56;101188.16;2192115;39;115024;-55
2021/06/29 04:33:36;;;;;;;;;;;;;;;22.17;63.62;101188.97;2184284;39;117756;-54
2021/06/29 04:35:08;;;;;;;;;;;;;;;22.16;63.35;101178.91;2188506;39;117371;-55
2021/06/29 04:36:40;;;;;;;;;;;;;;;22.17;63.67;101175.75;2182519;39;115524;-54
2021/06/29 04:38:11;;;;;;;;;;;;;;;22.20;63.62;101179.09;2186564;39;115457;-54
2021/06/29 04:39:44;;;;;;;;;;;;;;;22.19;63.69;101175.44;2188975;39;116118;-54
2021/06/29 04:41:15;;;;;;;;;;;;;;;22.18;63.50;101177.41;2189443;39;116109;-54
2021/06/29 04:42:47;;;;;;;;;;;;;;;22.19;63.70;101186.69;2191687;39;115605;-54
2021/06/29 04:44:19;;;;;;;;;;;;;;;22.16;63.68;101181.72;2192855;39;113916;-54
2021/06/29 04:45:51;;;;;;;;;;;;;;;22.15;63.53;101185.66;2183379;39;114120;-54
2021/06/29 04:47:22;;;;;;;;;;;;;;;22.18;63.47;101188.66;2187021;39;113967;-54
2021/06/29 04:48:54;;;;;;;;;;;;;;;22.15;63.49;101178.06;2182580;39;113931;-54
2021/06/29 04:50:26;;;;;;;;;;;;;;;22.16;63.63;101176.06;2188550;39;113937;-54
2021/06/29 04:51:57;;;;;;;;;;;;;;;22.17;63.54;101180.53;2188912;39;113916;-54
2021/06/29 04:53:29;;;;;;;;;;;;;;;22.18;63.60;101190.66;2185543;39;114121;-54
2021/06/29 04:55:01;;;;;;;;;;;;;;;22.19;63.63;101203.59;2187628;39;114297;-54
2021/06/29 04:56:32;;;;;;;;;;;;;;;22.19;63.46;101189.50;2189880;39;114251;-55
2021/06/29 04:58:04;;;;;;;;;;;;;;;22.20;63.14;101196.81;2183424;39;114277;-55
2021/06/29 04:59:36;;;;;;;;;;;;;;;22.21;63.48;101201.31;2187638;39;113898;-54
2021/06/29 05:01:07;;;;;;;;;;;;;;;22.18;63.50;101188.66;2189175;39;113923;-54
2021/06/29 05:02:39;;;;;;;;;;;;;;;22.19;63.24;101203.59;2181962;39;114147;-55
2021/06/29 05:04:11;;;;;;;;;;;;;;;22.18;63.42;101196.28;2187569;39;115619;-54
2021/06/29 05:05:43;;;;;;;;;;;;;;;22.19;63.39;101197.97;2191601;39;115570;-54
2021/06/29 05:07:15;;;;;;;;;;;;;;;22.20;63.44;101202.44;2181603;39;114211;-54
2021/06/29 05:08:46;;;;;;;;;;;;;;;22.20;63.37;101198.78;2181304;39;115133;-54
2021/06/29 05:10:18;;;;;;;;;;;;;;;22.19;63.18;101203.59;2187031;39;115267;-54
2021/06/29 05:11:51;;;;;;;;;;;;;;;22.18;63.16;101204.72;2189439;39;114982;-55
2021/06/29 05:13:22;;;;;;;;;;;;;;;22.17;63.40;101205.88;2188878;39;114982;-54
2021/06/29 05:14:54;;;;;;;;;;;;;;;22.17;63.20;101203.06;2189710;39;115591;-54
2021/06/29 05:16:26;;;;;;;;;;;;;;;22.19;63.17;101203.59;2185456;39;115656;-54
2021/06/29 05:17:57;;;;;;;;;;;;;;;22.19;63.35;101203.59;2187798;39;115325;-54
2021/06/29 05:19:29;;;;;;;;;;;;;;;22.21;63.00;101206.94;2189863;39;114780;-54
2021/06/29 05:21:01;;;;;;;;;;;;;;;22.21;62.88;101203.28;2182154;39;114881;-54
2021/06/29 05:22:33;;;;;;;;;;;;;;;22.20;63.13;101196.81;2186478;39;114950;-55
2021/06/29 05:24:05;;;;;;;;;;;;;;;22.20;63.17;101199.63;2190700;39;115202;-54
2021/06/29 05:25:37;;;;;;;;;;;;;;;22.19;62.99;101200.78;2178618;39;113884;-54
2021/06/29 05:27:08;;;;;;;;;;;;;;;22.20;63.26;101202.44;2179917;39;114930;-54
2021/06/29 05:28:40;;;;;;;;;;;;;;;22.21;62.78;101206.94;2184809;39;115965;-54
2021/06/29 05:30:13;;;;;;;;;;;;;;;22.21;62.94;101206.09;2190163;39;114822;-54
2021/06/29 05:31:45;;;;;;;;;;;;;;;22.18;63.06;101207.53;2190246;39;115623;-54
2021/06/29 05:33:17;;;;;;;;;;;;;;;22.17;63.25;101208.69;2181711;39;114755;-55
2021/06/29 05:34:49;;;;;;;;;;;;;;;22.17;63.13;101205.88;2187278;39;115479;-54
2021/06/29 05:36:20;;;;;;;;;;;;;;;22.17;63.12;101211.50;2175951;39;115772;-54
2021/06/29 05:37:52;;;;;;;;;;;;;;;22.18;63.08;101214.00;2184458;39;114866;-54
2021/06/29 05:39:23;;;;;;;;;;;;;;;22.18;62.96;101214.00;2189944;39;115485;-53
2021/06/29 05:40:55;;;;;;;;;;;;;;;22.16;63.20;101210.69;2189649;39;114735;-54
2021/06/29 05:42:27;;;;;;;;;;;;;;;22.20;62.95;101210.06;2188816;39;115609;-54
2021/06/29 05:43:58;;;;;;;;;;;;;;;22.16;62.97;101212.66;2191044;39;116557;-55
2021/06/29 05:45:30;;;;;;;;;;;;;;;22.16;62.99;101212.66;2190360;39;115889;-54
2021/06/29 05:47:04;;;;;;;;;;;;;;;22.17;62.78;101214.31;2183820;39;114607;-54
2021/06/29 05:48:36;;;;;;;;;;;;;;;22.15;62.92;101209.00;2193229;39;115752;-54
2021/06/29 05:50:10;;;;;;;;;;;;;;;22.17;62.89;101219.94;2194473;39;113908;-54
2021/06/29 05:51:45;;;;;;;;;;;;;;;22.16;62.70;101223.94;2191106;39;113907;-54
2021/06/29 05:53:17;;;;;;;;;;;;;;;22.18;62.95;101213.16;2183213;39;114408;-54
2021/06/29 05:54:49;;;;;;;;;;;;;;;22.19;63.04;101223.28;2190171;39;113957;-54
2021/06/29 05:56:20;;;;;;;;;;;;;;;22.18;63.01;101228.06;2194743;39;114099;-55
2021/06/29 05:57:52;;;;;;;;;;;;;;;22.16;63.10;101221.94;2189791;39;113945;-54
2021/06/29 05:59:24;;;;;;;;;;;;;;;22.17;63.03;101223.59;2182838;39;115600;-54
2021/06/29 06:00:55;;;;;;;;;;;;;;;22.17;63.05;101217.13;2188296;39;113810;-54
2021/06/29 06:02:27;;;;;;;;;;;;;;;22.16;63.05;101227.56;2191168;39;114103;-54
2021/06/29 06:03:59;;;;;;;;;;;;;;;22.18;63.08;101221.59;2183493;39;113925;-56
2021/06/29 06:05:30;;;;;;;;;;;;;;;22.19;62.86;101220.47;2188392;39;114219;-54
2021/06/29 06:07:03;;;;;;;;;;;;;;;22.23;62.93;101226.31;2184492;39;114066;-54
2021/06/29 06:08:34;;;;;;;;;;;;;;;22.19;62.66;101231.72;2189149;39;114390;-54
2021/06/29 06:10:07;;;;;;;;;;;;;;;22.21;62.93;101234.25;2193689;39;113719;-55
2021/06/29 06:11:39;;;;;;;;;;;;;;;22.21;62.85;101235.06;2177744;39;115611;-54
2021/06/29 06:13:11;;;;;;;;;;;;;;;22.21;62.56;101235.06;2179574;39;115999;-54
2021/06/29 06:14:43;;;;;;;;;;;;;;;22.22;62.25;101239.53;2189722;39;114760;-54
2021/06/29 06:16:14;;;;;;;;;;;;;;;22.21;62.36;101228.63;2185186;39;114314;-54
2021/06/29 06:17:46;;;;;;;;;;;;;;;22.21;62.35;101235.06;2188845;39;114965;-54
2021/06/29 06:19:18;;;;;;;;;;;;;;;22.22;62.54;101230.25;2193152;39;115176;-54
2021/06/29 06:20:51;;;;;;;;;;;;;;;22.21;62.58;101222.97;2194822;39;114973;-54
2021/06/29 06:22:23;;;;;;;;;;;;;;;22.21;62.26;101235.06;2190031;39;114940;-54
2021/06/29 06:23:54;;;;;;;;;;;;;;;22.20;62.36;101227.78;2183359;39;113904;-54
2021/06/29 06:25:26;;;;;;;;;;;;;;;22.18;62.14;101230.06;2188758;39;115431;-54
2021/06/29 06:26:58;;;;;;;;;;;;;;;22.19;62.40;101237.34;2183703;39;114458;-54
2021/06/29 06:28:30;;;;;;;;;;;;;;;22.21;62.20;101231.44;2184270;39;114210;-54
2021/06/29 06:30:03;;;;;;;;;;;;;;;22.20;62.34;101227.78;2178026;39;116523;-54
2021/06/29 06:31:35;;;;;;;;;;;;;;;22.18;62.02;101227.25;2189742;39;114900;-54
2021/06/29 06:33:07;;;;;;;;;;;;;;;22.18;62.48;101233.72;2182201;39;115663;-54
2021/06/29 06:34:39;;;;;;;;;;;;;;;22.18;62.45;101230.06;2189042;39;116274;-55
2021/06/29 06:36:11;;;;;;;;;;;;;;;22.18;62.40;101228.06;2190240;39;115855;-54
2021/06/29 06:37:43;;;;;;;;;;;;;;;22.20;62.49;101226.94;2191939;39;115477;-54
2021/06/29 06:39:15;;;;;;;;;;;;;;;22.20;62.34;101235.38;2184454;39;115509;-54
2021/06/29 06:40:47;;;;;;;;;;;;;;;22.20;62.31;101232.56;2188980;39;116259;-54
2021/06/29 06:42:18;;;;;;;;;;;;;;;22.19;62.43;101231.72;2196034;39;115572;-54
2021/06/29 06:43:56;;;;;;;;;;;;;;;22.19;62.18;101243.00;2184672;39;115776;-55
2021/06/29 06:45:28;;;;;;;;;;;;;;;22.17;62.38;101234.84;2182936;39;115322;-54
2021/06/29 06:46:59;;;;;;;;;;;;;;;22.17;62.34;101229.22;2188178;39;114588;-54
2021/06/29 06:48:31;;;;;;;;;;;;;;;22.20;62.70;101226.94;2190946;39;115718;-54
2021/06/29 06:50:04;;;;;;;;;;;;;;;22.22;62.55;101233.91;2191259;39;115571;-55
2021/06/29 06:51:39;;;;;;;;;;;;;;;22.20;62.36;101239.03;2190821;39;115603;-54
2021/06/29 06:53:13;;;;;;;;;;;;;;;22.21;62.21;101240.72;2184660;39;115077;-54
2021/06/29 06:54:45;;;;;;;;;;;;;;;22.24;62.29;101230.78;2191304;39;115584;-54
2021/06/29 06:56:17;;;;;;;;;;;;;;;22.25;62.49;101233.31;2189418;39;114266;-54
2021/06/29 06:57:49;;;;;;;;;;;;;;;22.21;60.85;101243.53;2193646;39;114178;-54
2021/06/29 06:59:20;;;;;;;;;;;;;;;22.20;60.64;101236.22;2190105;39;113780;-54
2021/06/29 07:00:53;;;;;;;;;;;;;;;22.19;60.39;101243.00;2185098;39;115195;-54
2021/06/29 07:02:24;;;;;;;;;;;;;;;22.18;60.04;101239.34;2188477;39;114237;-55
2021/06/29 07:03:56;;;;;;;;;;;;;;;22.15;59.79;101247.56;2179037;39;114072;-54
2021/06/29 07:05:28;;;;;;;;;;;;;;;22.16;59.84;101254.88;2186029;39;114782;-54
2021/06/29 07:07:00;;;;;;;;;;;;;;;22.12;59.59;101248.22;2190255;39;113833;-54
2021/06/29 07:08:32;;;;;;;;;;;;;;;22.10;59.34;101254.13;2190175;39;113955;-54
2021/06/29 07:10:05;;;;;;;;;;;;;;;22.09;59.30;101260.06;2186627;39;115200;-54
2021/06/29 07:11:37;;;;;;;;;;;;;;;22.06;59.14;101252.25;2187665;39;114062;-54
2021/06/29 07:13:09;;;;;;;;;;;;;;;22.05;59.04;101253.41;2189615;39;114094;-54
2021/06/29 07:14:41;;;;;;;;;;;;;;;22.05;59.18;101256.22;2190088;39;114114;-55
2021/06/29 07:16:13;;;;;;;;;;;;;;;22.05;59.21;101259.88;2193051;39;114028;-55
2021/06/29 07:17:45;;;;;;;;;;;;;;;22.02;59.37;101268.94;2189370;39;115694;-54
2021/06/29 07:19:16;;;;;;;;;;;;;;;22.05;59.45;101265.50;2190119;39;114866;-55
2021/06/29 07:20:48;;;;;;;;;;;;;;;21.99;57.94;101263.91;2183296;39;114512;-55
2021/06/29 07:22:20;;;;;;;;;;;;;;;21.99;58.21;101275.16;2186352;39;115076;-54
2021/06/29 07:23:54;;;;;;;;;;;;;;;21.96;57.00;101275.81;2181226;39;114873;-54
2021/06/29 07:25:25;;;;;;;;;;;;;;;21.94;57.42;101271.63;2182494;39;115809;-55
2021/06/29 07:26:57;;;;;;;;;;;;;;;21.92;56.69;101273.88;2188114;39;115525;-55
2021/06/29 07:28:29;;;;;;;;;;;;;;;21.94;56.48;101275.25;2189739;39;114169;-55
2021/06/29 07:30:01;;;;;;;;;;;;;;;21.91;56.51;101270.22;2185609;39;115090;-55
2021/06/29 07:31:32;;;;;;;;;;;;;;;21.86;56.34;101275.94;2190064;39;114802;-55
2021/06/29 07:33:05;;;;;;;;;;;;;;;21.86;56.12;101275.94;2181012;39;114297;-54
2021/06/29 07:34:37;;;;;;;;;;;;;;;21.88;57.29;101284.09;2181583;39;114839;-54
2021/06/29 07:36:12;;;;;;;;;;;;;;;21.92;57.64;101276.69;2181260;39;114658;-54
2021/06/29 07:37:43;;;;;;;;;;;;;;;21.88;56.34;101278.47;2187925;39;115005;-54
2021/06/29 07:39:15;;;;;;;;;;;;;;;21.89;55.70;101285.78;2185138;39;116213;-54
2021/06/29 07:40:47;;;;;;;;;;;;;;;21.88;55.83;101279.31;2187026;39;114932;-54
2021/06/29 07:42:19;;;;;;;;;;;;;;;21.87;55.37;101274.81;2173605;39;114741;-55
2021/06/29 07:43:51;;;;;;;;;;;;;;;21.87;55.75;101279.59;2170134;39;115505;-54
2021/06/29 07:45:25;;;;;;;;;;;;;;;21.83;55.45;101287.84;2180962;39;115906;-54
2021/06/29 07:46:58;;;;;;;;;;;;;;;21.84;55.40;101285.84;2185782;39;114768;-54
2021/06/29 07:48:29;;;;;;;;;;;;;;;21.79;55.47;101277.50;2189012;39;115987;-54
2021/06/29 07:50:03;;;;;;;;;;;;;;;21.78;55.40;101282.28;2180698;39;116448;-55
2021/06/29 07:51:35;;;;;;;;;;;;;;;21.78;55.54;101278.66;2172591;39;115332;-55
2021/06/29 07:53:08;;;;;;;;;;;;;;;21.73;55.42;101280.41;2173051;39;115724;-54